createdAt,value
2019-02-20T00:00:45.629Z,20.00
2019-02-20T00:03:14.925Z,17.63
2019-02-20T00:05:44.316Z,16.07
2019-02-20T00:08:13.619Z,23.17
2019-02-20T00:10:42.941Z,13.40
2019-02-20T00:13:12.300Z,15.67
2019-02-20T00:15:41.607Z,21.87
2019-02-20T00:18:10.916Z,21.60
2019-02-20T00:20:40.231Z,17.63
2019-02-20T00:23:09.543Z,27.60
2019-02-20T00:25:38.833Z,17.53
2019-02-20T00:28:08.133Z,9.43
2019-02-20T00:30:37.465Z,25.80
2019-02-20T00:33:06.764Z,20.57
2019-02-20T00:35:36.059Z,15.70
2019-02-20T00:38:05.392Z,25.93
2019-02-20T00:40:34.763Z,16.60
2019-02-20T00:43:04.081Z,16.63
2019-02-20T00:45:45.709Z,19.33
2019-02-20T00:48:27.884Z,24.20
2019-02-20T00:51:06.426Z,18.63
2019-02-20T00:53:41.024Z,13.60
2019-02-20T00:56:10.336Z,15.47
2019-02-20T00:58:39.644Z,17.40
2019-02-20T01:01:08.956Z,15.63
2019-02-20T01:03:38.682Z,22.83
2019-02-20T01:06:08.235Z,11.73
2019-02-20T01:08:37.521Z,20.80
2019-02-20T01:11:07.573Z,14.83
2019-02-20T01:13:36.889Z,15.60
2019-02-20T01:16:06.228Z,16.17
2019-02-20T01:18:35.917Z,33.10
2019-02-20T01:21:05.210Z,19.70
2019-02-20T01:23:34.527Z,16.73
2019-02-20T01:26:03.856Z,14.83
2019-02-20T01:28:33.181Z,20.90
2019-02-20T01:31:02.472Z,20.82
2019-02-20T01:33:31.867Z,17.00
2019-02-20T01:36:01.150Z,13.13
2019-02-20T01:38:30.440Z,26.48
2019-02-20T01:40:59.776Z,24.00
2019-02-20T01:43:29.060Z,14.10
2019-02-20T01:45:58.363Z,17.75
2019-02-20T01:48:27.689Z,12.03
2019-02-20T01:50:57.048Z,23.33
2019-02-20T01:53:26.339Z,16.03
2019-02-20T01:55:55.636Z,11.37
2019-02-20T01:58:24.937Z,22.87
2019-02-20T02:00:54.366Z,24.87
2019-02-20T02:03:23.680Z,22.53
2019-02-20T02:05:52.979Z,21.07
2019-02-20T02:08:22.276Z,20.73
2019-02-20T02:10:51.605Z,35.47
2019-02-20T02:13:20.891Z,16.00
2019-02-20T02:15:50.170Z,17.33
2019-02-20T02:18:19.472Z,23.37
2019-02-20T02:20:48.751Z,27.67
2019-02-20T02:23:20.115Z,23.53
2019-02-20T02:25:49.124Z,24.80
2019-02-20T02:28:18.403Z,23.47
2019-02-20T02:30:48.671Z,36.10
2019-02-20T02:33:17.989Z,25.12
2019-02-20T02:35:47.296Z,24.70
2019-02-20T02:38:16.601Z,28.25
2019-02-20T02:40:46.001Z,27.85
2019-02-20T02:43:15.346Z,26.00
2019-02-20T02:45:44.765Z,25.05
2019-02-20T02:48:14.331Z,18.12
2019-02-20T02:50:43.624Z,22.37
2019-02-20T02:53:12.936Z,24.12
2019-02-20T02:55:42.269Z,24.47
2019-02-20T02:58:11.626Z,27.70
2019-02-20T03:00:40.997Z,18.50
2019-02-20T03:03:10.320Z,19.82
2019-02-20T03:05:39.603Z,18.00
2019-02-20T03:08:08.892Z,16.00
2019-02-20T03:10:38.196Z,16.63
2019-02-20T03:13:07.497Z,15.40
2019-02-20T03:15:36.794Z,27.63
2019-02-20T03:18:06.241Z,23.70
2019-02-20T03:20:35.570Z,18.90
2019-02-20T03:23:04.856Z,31.83
2019-02-20T03:25:34.158Z,23.93
2019-02-20T03:28:03.780Z,25.07
2019-02-20T03:30:33.093Z,31.40
2019-02-20T03:33:02.758Z,27.87
2019-02-20T03:35:32.056Z,26.83
2019-02-20T03:38:01.359Z,27.83
2019-02-20T03:40:30.737Z,19.00
2019-02-20T03:43:00.051Z,12.13
2019-02-20T03:45:29.453Z,17.47
2019-02-20T03:47:58.794Z,12.20
2019-02-20T03:50:28.114Z,15.13
2019-02-20T03:52:57.410Z,30.43
2019-02-20T03:55:26.725Z,14.00
2019-02-20T03:57:56.060Z,14.93
2019-02-20T04:00:25.971Z,19.30
2019-02-20T04:02:55.291Z,15.25
2019-02-20T04:05:24.632Z,23.47
2019-02-20T04:07:53.951Z,13.70
2019-02-20T04:10:23.271Z,21.10
2019-02-20T04:12:52.593Z,21.47
2019-02-20T04:15:21.964Z,18.42
2019-02-20T04:17:51.895Z,24.40
2019-02-20T04:20:21.281Z,19.20
2019-02-20T04:22:50.870Z,16.00
2019-02-20T04:25:20.229Z,32.60
2019-02-20T04:27:49.530Z,16.63
2019-02-20T04:30:19.860Z,16.55
2019-02-20T04:32:49.162Z,28.15
2019-02-20T04:35:18.449Z,28.83
2019-02-20T04:37:47.755Z,22.75
2019-02-20T04:40:17.029Z,16.57
2019-02-20T04:42:46.367Z,31.73
2019-02-20T04:45:15.738Z,30.10
2019-02-20T04:47:45.141Z,15.68
2019-02-20T04:50:14.435Z,25.00
2019-02-20T04:52:43.855Z,21.20
2019-02-20T04:55:13.161Z,21.87
2019-02-20T04:57:42.465Z,20.33
2019-02-20T05:00:13.088Z,17.87
2019-02-20T05:02:42.367Z,16.93
2019-02-20T05:05:11.691Z,17.33
2019-02-20T05:07:41.037Z,20.50
2019-02-20T05:10:10.828Z,23.30
2019-02-20T05:12:40.149Z,15.93
2019-02-20T05:15:09.490Z,23.03
2019-02-20T05:17:38.766Z,39.35
2019-02-20T05:20:08.285Z,20.03
2019-02-20T05:22:37.647Z,15.48
2019-02-20T05:25:06.938Z,27.13
2019-02-20T05:27:36.213Z,19.47
2019-02-20T05:30:05.635Z,26.00
2019-02-20T05:32:34.921Z,22.13
2019-02-20T05:35:04.213Z,37.93
2019-02-20T05:37:33.521Z,28.43
2019-02-20T05:40:02.822Z,20.60
2019-02-20T05:42:32.118Z,18.13
2019-02-20T05:45:01.489Z,20.00
2019-02-20T05:47:30.805Z,27.90
2019-02-20T05:50:00.349Z,23.40
2019-02-20T05:52:29.760Z,29.13
2019-02-20T05:54:59.154Z,31.27
2019-02-20T05:57:28.598Z,21.03
2019-02-20T05:59:57.965Z,22.22
2019-02-20T06:02:27.332Z,21.77
2019-02-20T06:04:56.657Z,23.50
2019-02-20T06:07:25.977Z,30.77
2019-02-20T06:09:55.269Z,24.23
2019-02-20T06:12:24.613Z,14.80
2019-02-20T06:14:53.941Z,19.48
2019-02-20T06:17:23.306Z,28.73
2019-02-20T06:19:52.580Z,24.60
2019-02-20T06:22:21.911Z,23.95
2019-02-20T06:24:51.211Z,20.70
2019-02-20T06:27:20.581Z,28.12
2019-02-20T06:29:49.882Z,24.87
2019-02-20T06:32:19.237Z,21.10
2019-02-20T06:34:48.539Z,24.05
2019-02-20T06:37:17.845Z,24.87
2019-02-20T06:39:47.132Z,23.30
2019-02-20T06:42:16.477Z,30.27
2019-02-20T06:44:45.871Z,35.75
2019-02-20T06:47:15.167Z,35.13
2019-02-20T06:49:44.442Z,41.70
2019-02-20T06:52:13.804Z,51.90
2019-02-20T06:54:43.185Z,41.33
2019-02-20T06:57:12.495Z,34.65
2019-02-20T06:59:41.822Z,37.73
2019-02-20T07:02:11.342Z,27.85
2019-02-20T07:04:40.649Z,23.32
2019-02-20T07:07:44.912Z,35.48
2019-02-20T07:11:07.719Z,21.47
2019-02-20T07:13:56.333Z,25.17
2019-02-20T07:17:07.883Z,28.70
2019-02-20T07:20:23.646Z,19.87
2019-02-20T07:23:10.187Z,24.17
2019-02-20T07:26:16.965Z,30.67
2019-02-20T07:29:51.453Z,32.30
2019-02-20T07:32:20.739Z,35.67
2019-02-20T07:34:50.115Z,24.90
2019-02-20T07:37:19.455Z,27.90
2019-02-20T07:39:48.745Z,30.30
2019-02-20T07:42:18.057Z,27.30
2019-02-20T07:44:47.388Z,30.00
2019-02-20T07:47:17.696Z,34.57
2019-02-20T07:49:47.194Z,30.20
2019-02-20T07:52:16.515Z,45.47
2019-02-20T07:54:46.164Z,25.47
2019-02-20T07:57:16.050Z,36.90
2019-02-20T07:59:47.109Z,36.23
2019-02-20T08:02:16.424Z,48.90
2019-02-20T08:04:46.100Z,52.83
2019-02-20T08:07:15.986Z,30.87
2019-02-20T08:09:45.291Z,34.07
2019-02-20T08:12:14.624Z,41.20
2019-02-20T08:14:43.911Z,39.03
2019-02-20T08:17:13.294Z,32.83
2019-02-20T08:19:42.676Z,40.30
2019-02-20T08:22:11.966Z,39.00
2019-02-20T08:24:41.348Z,41.17
2019-02-20T08:27:10.745Z,32.00
2019-02-20T08:29:40.069Z,38.57
2019-02-20T08:32:09.365Z,34.67
2019-02-20T08:34:38.674Z,48.97
2019-02-20T08:37:08.541Z,40.07
2019-02-20T08:39:37.920Z,45.43
2019-02-20T08:42:07.230Z,34.27
2019-02-20T08:44:36.980Z,40.00
2019-02-20T08:47:06.286Z,36.67
2019-02-20T08:49:35.619Z,67.27
2019-02-20T08:52:05.376Z,39.07
2019-02-20T08:54:35.300Z,56.83
2019-02-20T08:57:04.599Z,36.43
2019-02-20T08:59:33.944Z,46.57
2019-02-20T09:02:03.602Z,53.93
2019-02-20T09:04:33.360Z,48.73
2019-02-20T09:07:02.687Z,45.77
2019-02-20T09:09:32.005Z,46.27
2019-02-20T09:12:01.337Z,45.43
2019-02-20T09:14:30.708Z,53.40
2019-02-20T09:17:00.042Z,47.97
2019-02-20T09:19:29.352Z,40.83
2019-02-20T09:21:58.732Z,54.00
2019-02-20T09:24:28.068Z,47.43
2019-02-20T09:26:57.396Z,59.97
2019-02-20T09:29:26.779Z,60.77
2019-02-20T09:31:56.101Z,57.70
2019-02-20T09:34:25.914Z,62.33
2019-02-20T09:36:55.361Z,62.00
2019-02-20T09:39:43.290Z,55.10
2019-02-20T09:42:18.694Z,53.80
2019-02-20T09:44:49.028Z,53.70
2019-02-20T09:47:19.277Z,51.90
2019-02-20T09:49:48.575Z,54.50
2019-02-20T09:52:17.889Z,50.70
2019-02-20T09:54:47.289Z,54.23
2019-02-20T09:57:16.728Z,50.13
2019-02-20T09:59:46.036Z,43.67
2019-02-20T10:02:15.364Z,54.60
2019-02-20T10:04:44.732Z,56.77
2019-02-20T10:07:14.126Z,54.27
2019-02-20T10:09:43.437Z,51.57
2019-02-20T10:12:12.750Z,53.73
2019-02-20T10:14:42.041Z,48.70
2019-02-20T10:17:11.349Z,55.10
2019-02-20T10:19:40.668Z,44.33
2019-02-20T10:22:09.955Z,51.33
2019-02-20T10:24:39.294Z,49.90
2019-02-20T10:27:08.595Z,57.57
2019-02-20T10:29:37.957Z,46.60
2019-02-20T10:32:07.257Z,50.13
2019-02-20T10:34:36.676Z,54.73
2019-02-20T10:37:06.001Z,50.17
2019-02-20T10:39:35.387Z,47.63
2019-02-20T10:42:04.772Z,46.90
2019-02-20T10:44:34.081Z,43.40
2019-02-20T10:47:03.399Z,54.03
2019-02-20T10:49:32.824Z,55.50
2019-02-20T10:52:02.114Z,35.50
2019-02-20T10:54:31.409Z,34.93
2019-02-20T10:57:00.725Z,39.07
2019-02-20T10:59:30.030Z,27.67
2019-02-20T11:01:59.324Z,33.23
2019-02-20T11:04:28.636Z,30.10
2019-02-20T11:06:57.947Z,30.03
2019-02-20T11:09:27.248Z,30.17
2019-02-20T11:11:56.575Z,30.83
2019-02-20T11:14:25.892Z,30.43
2019-02-20T11:16:55.219Z,25.07
2019-02-20T11:19:24.590Z,25.90
2019-02-20T11:21:53.896Z,22.20
2019-02-20T11:24:23.190Z,22.23
2019-02-20T11:26:55.155Z,20.50
2019-02-20T11:29:23.037Z,22.23
2019-02-20T11:31:52.647Z,21.67
2019-02-20T11:34:21.974Z,25.50
2019-02-20T11:36:51.278Z,17.53
2019-02-20T11:39:20.655Z,19.80
2019-02-20T11:41:49.968Z,20.40
2019-02-20T11:44:21.206Z,19.07
2019-02-20T11:46:50.312Z,26.33
2019-02-20T11:49:19.764Z,28.40
2019-02-20T11:51:49.089Z,26.37
2019-02-20T11:54:18.396Z,22.63
2019-02-20T11:56:47.707Z,23.90
2019-02-20T11:59:17.034Z,27.70
2019-02-20T12:01:46.394Z,28.73
2019-02-20T12:04:15.749Z,20.80
2019-02-20T12:06:45.060Z,34.30
2019-02-20T12:09:14.472Z,24.53
2019-02-20T12:11:43.781Z,19.17
2019-02-20T12:14:13.099Z,17.07
2019-02-20T12:16:42.397Z,18.53
2019-02-20T12:19:11.747Z,19.00
2019-02-20T12:21:41.093Z,11.97
2019-02-20T12:24:11.874Z,14.07
2019-02-20T12:26:41.275Z,10.13
2019-02-20T12:29:11.489Z,14.03
2019-02-20T12:31:40.813Z,10.70
2019-02-20T12:34:10.154Z,21.53
2019-02-20T12:36:39.501Z,10.90
2019-02-20T12:39:08.883Z,13.13
2019-02-20T12:41:38.194Z,11.13
2019-02-20T12:44:07.578Z,9.17
2019-02-20T12:46:36.866Z,11.67
2019-02-20T12:49:06.306Z,12.70
2019-02-20T12:51:35.614Z,13.50
2019-02-20T12:54:04.896Z,9.10
2019-02-20T12:56:34.246Z,9.57
2019-02-20T12:59:07.846Z,12.13
2019-02-20T13:01:34.662Z,11.17
2019-02-20T13:04:03.996Z,9.30
2019-02-20T13:06:33.305Z,11.50
2019-02-20T13:09:02.597Z,18.70
2019-02-20T13:11:33.109Z,15.40
2019-02-20T13:14:02.413Z,14.00
2019-02-20T13:16:31.741Z,12.60
2019-02-20T13:19:01.106Z,10.47
2019-02-20T13:21:30.413Z,7.83
2019-02-20T13:23:59.785Z,11.93
2019-02-20T13:26:29.080Z,10.47
2019-02-20T13:28:58.370Z,11.80
2019-02-20T13:31:27.680Z,9.60
2019-02-20T13:33:56.975Z,10.83
2019-02-20T13:36:26.294Z,15.07
2019-02-20T13:38:55.615Z,18.90
2019-02-20T13:41:24.981Z,11.10
2019-02-20T13:43:54.342Z,8.17
2019-02-20T13:46:23.642Z,13.07
2019-02-20T13:48:53.044Z,13.70
2019-02-20T13:51:22.358Z,14.87
2019-02-20T13:53:52.148Z,10.83
2019-02-20T13:56:21.442Z,11.93
2019-02-20T13:58:50.829Z,10.80
2019-02-20T14:01:20.213Z,12.20
2019-02-20T14:03:49.557Z,11.70
2019-02-20T14:06:18.929Z,6.60
2019-02-20T14:08:48.733Z,10.80
2019-02-20T14:11:18.111Z,12.97
2019-02-20T14:13:47.489Z,9.90
2019-02-20T14:16:16.846Z,11.80
2019-02-20T14:18:46.224Z,12.23
2019-02-20T14:21:15.601Z,16.30
2019-02-20T14:23:45.035Z,11.97
2019-02-20T14:26:14.396Z,10.07
2019-02-20T14:28:43.792Z,8.23
2019-02-20T14:31:13.213Z,11.10
2019-02-20T14:33:42.609Z,10.10
2019-02-20T14:36:11.986Z,11.07
2019-02-20T14:38:41.447Z,6.83
2019-02-20T14:41:11.001Z,8.50
2019-02-20T14:43:40.356Z,7.87
2019-02-20T14:46:09.747Z,7.80
2019-02-20T14:48:39.165Z,11.43
2019-02-20T14:51:08.562Z,16.03
2019-02-20T14:53:37.970Z,11.77
2019-02-20T14:56:07.678Z,9.67
2019-02-20T14:58:37.075Z,12.77
2019-02-20T15:01:06.530Z,9.57
2019-02-20T15:03:36.062Z,8.30
2019-02-20T15:06:05.593Z,15.20
2019-02-20T15:08:34.956Z,13.13
2019-02-20T15:11:04.650Z,7.70
2019-02-20T15:13:34.014Z,9.70
2019-02-20T15:16:03.399Z,10.30
2019-02-20T15:18:32.787Z,9.87
2019-02-20T15:21:02.724Z,19.63
2019-02-20T15:23:32.156Z,9.93
2019-02-20T15:26:01.863Z,14.07
2019-02-20T15:28:31.294Z,8.27
2019-02-20T15:31:02.179Z,12.40
2019-02-20T15:33:31.619Z,9.10
2019-02-20T15:36:01.024Z,10.33
2019-02-20T15:38:31.369Z,8.20
2019-02-20T15:41:01.078Z,10.20
2019-02-20T15:43:30.422Z,11.10
2019-02-20T15:45:59.842Z,16.63
2019-02-20T15:48:29.215Z,8.53
2019-02-20T15:50:58.596Z,14.13
2019-02-20T15:53:27.992Z,14.20
2019-02-20T15:55:57.400Z,6.93
2019-02-20T15:58:27.328Z,9.60
2019-02-20T16:00:56.698Z,11.10
2019-02-20T16:03:26.093Z,7.73
2019-02-20T16:05:55.460Z,10.73
2019-02-20T16:08:24.857Z,14.63
2019-02-20T16:10:55.188Z,11.17
2019-02-20T16:13:24.751Z,9.47
2019-02-20T16:15:54.120Z,14.30
2019-02-20T16:18:23.452Z,11.67
2019-02-20T16:20:52.816Z,10.10
2019-02-20T16:23:22.200Z,16.70
2019-02-20T16:25:51.645Z,15.23
2019-02-20T16:28:21.349Z,15.83
2019-02-20T16:30:50.701Z,13.73
2019-02-20T16:33:20.121Z,13.13
2019-02-20T16:35:49.914Z,15.40
2019-02-20T16:38:19.382Z,12.20
2019-02-20T16:40:48.773Z,15.77
2019-02-20T16:43:18.508Z,19.60
2019-02-20T16:45:48.050Z,15.87
2019-02-20T16:48:19.231Z,12.63
2019-02-20T16:50:48.605Z,17.93
2019-02-20T16:53:17.986Z,16.60
2019-02-20T16:55:47.372Z,28.27
2019-02-20T16:58:17.076Z,14.60
2019-02-20T17:00:46.435Z,17.17
2019-02-20T17:03:15.835Z,13.97
2019-02-20T17:05:45.281Z,19.83
2019-02-20T17:08:14.832Z,25.10
2019-02-20T17:10:45.588Z,14.50
2019-02-20T17:13:15.556Z,15.20
2019-02-20T17:15:45.049Z,14.13
2019-02-20T17:18:14.577Z,16.13
2019-02-20T17:20:43.871Z,21.33
2019-02-20T17:23:14.167Z,13.53
2019-02-20T17:25:43.536Z,15.10
2019-02-20T17:28:13.345Z,15.97
2019-02-20T17:30:42.709Z,17.80
2019-02-20T17:33:12.096Z,15.23
2019-02-20T17:35:44.085Z,19.67
2019-02-20T17:38:13.918Z,15.33
2019-02-20T17:40:43.597Z,15.07
2019-02-20T17:43:13.276Z,29.97
2019-02-20T17:45:42.688Z,14.33
2019-02-20T17:48:12.080Z,14.60
2019-02-20T17:50:41.451Z,15.00
2019-02-20T17:53:10.873Z,16.37
2019-02-20T17:55:40.301Z,18.50
2019-02-20T17:58:15.149Z,17.07
2019-02-20T18:00:40.652Z,16.27
2019-02-20T18:03:09.961Z,24.43
2019-02-20T18:05:40.236Z,16.27
2019-02-20T18:08:09.534Z,19.00
2019-02-20T18:10:38.861Z,32.13
2019-02-20T18:13:08.169Z,20.87
2019-02-20T18:15:37.483Z,14.50
2019-02-20T18:18:06.789Z,20.70
2019-02-20T18:20:36.120Z,21.00
2019-02-20T18:23:05.425Z,22.50
2019-02-20T18:25:34.745Z,21.27
2019-02-20T18:28:04.037Z,24.00
2019-02-20T18:30:33.559Z,34.57
2019-02-20T18:33:02.914Z,19.00
2019-02-20T18:35:32.487Z,20.63
2019-02-20T18:38:01.857Z,26.80
2019-02-20T18:40:31.322Z,22.63
2019-02-20T18:43:00.639Z,24.60
2019-02-20T18:45:29.988Z,25.57
2019-02-20T18:47:59.355Z,24.77
2019-02-20T18:50:28.742Z,25.47
2019-02-20T18:52:58.124Z,20.70
2019-02-20T18:55:27.440Z,28.90
2019-02-20T18:57:57.382Z,27.83
2019-02-20T19:00:26.845Z,25.47
2019-02-20T19:02:56.215Z,22.23
2019-02-20T19:05:25.584Z,26.60
2019-02-20T19:07:54.957Z,36.53
2019-02-20T19:10:31.596Z,25.80
2019-02-20T19:13:44.994Z,18.10
2019-02-20T19:16:48.761Z,18.13
2019-02-20T19:19:33.549Z,20.63
2019-02-20T19:22:48.901Z,19.50
2019-02-20T19:25:46.199Z,24.27
2019-02-20T19:28:33.489Z,23.60
2019-02-20T19:31:33.711Z,17.90
2019-02-20T19:34:25.213Z,22.83
2019-02-20T19:37:30.270Z,19.67
2019-02-20T19:40:13.088Z,19.50
2019-02-20T19:43:08.472Z,19.37
2019-02-20T19:46:27.803Z,16.80
2019-02-20T19:49:42.990Z,14.53
2019-02-20T19:52:59.204Z,15.63
2019-02-20T19:55:44.620Z,16.70
2019-02-20T19:58:57.642Z,21.90
2019-02-20T20:01:52.273Z,18.00
2019-02-20T20:04:47.647Z,20.20
2019-02-20T20:07:58.536Z,19.03
2019-02-20T20:11:19.694Z,24.10
2019-02-20T20:14:25.009Z,17.30
2019-02-20T20:17:43.489Z,22.80
2019-02-20T20:20:53.843Z,21.10
2019-02-20T20:24:10.331Z,19.27
2019-02-20T20:27:21.531Z,33.20
2019-02-20T20:30:30.247Z,22.70
2019-02-20T20:33:20.095Z,23.37
2019-02-20T20:36:38.344Z,23.73
2019-02-20T20:43:54.070Z,22.00
2019-02-20T20:47:27.491Z,23.53
2019-02-20T20:50:50.143Z,25.10
2019-02-20T20:53:53.111Z,28.33
2019-02-20T20:57:02.944Z,30.60
2019-02-20T20:59:50.879Z,22.30
2019-02-20T21:02:51.003Z,32.33
2019-02-20T21:06:02.996Z,23.40
2019-02-20T21:08:52.027Z,31.20
2019-02-20T21:12:15.102Z,26.13
2019-02-20T21:15:21.761Z,27.70
2019-02-20T21:18:26.404Z,30.23
2019-02-20T21:21:45.557Z,33.90
2019-02-20T21:25:14.603Z,26.90
2019-02-20T21:28:23.186Z,34.30
2019-02-20T21:31:48.389Z,23.93
2019-02-20T21:34:44.363Z,32.03
2019-02-20T21:37:49.765Z,27.80
2019-02-20T21:40:50.870Z,37.30
2019-02-20T21:44:04.433Z,26.00
2019-02-20T21:47:23.879Z,20.50
2019-02-20T21:50:36.616Z,19.50
2019-02-20T21:53:59.428Z,19.87
2019-02-20T21:57:17.102Z,27.70
2019-02-20T22:00:36.320Z,28.63
2019-02-20T22:03:56.030Z,24.73
2019-02-20T22:07:12.493Z,21.10
2019-02-20T22:09:58.425Z,21.37
2019-02-20T22:13:03.873Z,22.40
2019-02-20T22:16:11.125Z,22.60
2019-02-20T22:18:58.873Z,22.97
2019-02-20T22:22:09.299Z,30.57
2019-02-20T22:25:30.989Z,19.43
2019-02-20T22:28:29.599Z,21.47
2019-02-20T22:31:41.625Z,17.90
2019-02-20T22:34:43.889Z,22.10
2019-02-20T22:38:00.239Z,31.13
2019-02-20T22:41:18.888Z,23.37
2019-02-20T22:44:38.417Z,21.17
2019-02-20T22:47:32.765Z,21.37
2019-02-20T22:50:58.431Z,21.07
2019-02-20T22:54:26.705Z,25.93
2019-02-20T22:57:39.136Z,23.80
2019-02-20T23:01:21.125Z,17.03
2019-02-20T23:04:30.616Z,24.73
2019-02-20T23:07:36.761Z,25.47
2019-02-20T23:10:40.605Z,28.10
2019-02-20T23:13:25.874Z,23.63
2019-02-20T23:15:55.206Z,31.17
2019-02-20T23:18:24.547Z,20.67
2019-02-20T23:20:53.882Z,21.73
2019-02-20T23:23:23.197Z,21.80
2019-02-20T23:25:52.512Z,20.00
2019-02-20T23:28:21.794Z,26.03
2019-02-20T23:30:51.134Z,25.47
2019-02-20T23:33:20.810Z,25.20
2019-02-20T23:35:51.074Z,33.00
2019-02-20T23:38:20.398Z,22.60
2019-02-20T23:40:49.732Z,31.73
2019-02-20T23:43:19.061Z,26.27
2019-02-20T23:45:48.437Z,27.80
2019-02-20T23:48:17.819Z,26.53
2019-02-20T23:50:47.142Z,20.47
2019-02-20T23:53:18.669Z,22.23
2019-02-20T23:55:47.476Z,21.60
2019-02-20T23:58:16.776Z,22.83
